Terminal Aerodrome Forecast
Issued by NWS Shreveport, LA

Home | Current Version | Previous Version | Text Only | Print | Product List | Glossary On
Versions: 1 2 3 4 5 6 7 8 9 10 11 12 13 14 15 16 17
000
FTUS44 KSHV 261123
TAFGGG
TAF
KGGG 261123Z 2612/2712 07003KT P6SM BKN060 BKN120 BKN250
     FM261600 08006KT P6SM SCT050 SCT120 BKN250
     FM270000 09004KT P6SM FEW050 SCT150 BKN250=

USA.gov is the U.S. government's official web portal to all federal, state and local government web resources and services.